Time;durP1;ratioP1;P1;durP2;ratioP2;P2;SDS_P1;SDS_P2;PMS_P1;PMS_P2;Temp;Humidity;BMP_temperature;BMP_pressure;BME280_temperature;BME280_humidity;BME280_pressure;Samples;Min_cycle;Max_cycle;Signal;HPM_P1;HPM_P2
2022/12/26 00:01:35;;;;;;;2.47;2.27;;;;;;;10.21;99.52;98084.69;5033900;28;20229;-71
2022/12/26 00:04:02;;;;;;;3.20;2.27;;;;;;;10.23;99.04;98084.47;5032178;28;20232;-71
2022/12/26 00:06:30;;;;;;;2.57;2.00;;;;;;;10.34;98.20;98092.56;5033810;28;20316;-71
2022/12/26 00:08:58;;;;;;;2.67;1.97;;;;;;;10.31;98.15;98090.31;5033080;28;20206;-71
2022/12/26 00:11:25;;;;;;;3.00;2.40;;;;;;;10.30;98.64;98080.72;5033787;28;20230;-71
2022/12/26 00:14:03;;;;;;;2.40;2.20;;;;;;;10.37;97.64;98092.09;5033026;28;20216;-71
2022/12/26 00:16:29;;;;;;;2.57;2.07;;;;;;;10.40;98.56;98099.66;5033504;28;20671;-71
2022/12/26 00:18:56;;;;;;;2.73;2.17;;;;;;;10.42;98.28;98089.59;5032904;28;20202;-71
2022/12/26 00:21:25;;;;;;;2.37;2.17;;;;;;;10.64;97.12;98104.16;5033459;28;20239;-71
2022/12/26 00:23:52;;;;;;;4.50;1.93;;;;;;;10.51;97.15;98098.94;5032812;28;20205;-71
2022/12/26 00:26:21;;;;;;;2.30;2.10;;;;;;;10.53;97.94;98102.22;5033580;28;20232;-71
2022/12/26 00:28:48;;;;;;;2.40;2.00;;;;;;;10.49;97.56;98098.34;5032740;28;20293;-71
2022/12/26 00:31:20;;;;;;;2.40;2.20;;;;;;;10.51;97.46;98098.16;5033200;28;20647;-71
2022/12/26 00:33:47;;;;;;;3.37;2.27;;;;;;;10.59;97.21;98101.34;5032418;28;20568;-71
2022/12/26 00:36:17;;;;;;;2.07;1.97;;;;;;;10.58;97.03;98107.69;5033315;28;20229;-71
2022/12/26 00:38:45;;;;;;;2.27;2.07;;;;;;;10.52;97.57;98102.44;5032567;28;20206;-71
2022/12/26 00:41:12;;;;;;;2.07;1.87;;;;;;;10.53;97.54;98096.06;5033002;28;20234;-71
2022/12/26 00:43:39;;;;;;;2.00;1.80;;;;;;;10.51;97.16;98098.16;5032538;28;20202;-71
2022/12/26 00:46:06;;;;;;;2.13;1.93;;;;;;;10.52;97.40;98105.09;5033699;28;20233;-71
2022/12/26 00:48:32;;;;;;;2.13;1.93;;;;;;;10.32;100.00;98105.22;5030869;28;20224;-71
2022/12/26 00:50:59;;;;;;;2.30;2.10;;;;;;;10.45;98.57;98093.72;5033339;28;20234;-71
2022/12/26 00:53:26;;;;;;;3.00;2.10;;;;;;;10.43;97.78;98109.03;5032445;28;20206;-71
2022/12/26 00:55:52;;;;;;;2.37;2.17;;;;;;;10.28;99.43;98098.72;5033375;28;20209;-71
2022/12/26 00:58:20;;;;;;;2.57;1.90;;;;;;;10.15;100.00;98085.56;5032504;28;20213;-71
2022/12/26 01:00:47;;;;;;;2.73;1.90;;;;;;;10.18;100.00;98097.59;5032415;28;20206;-71
2022/12/26 01:03:14;;;;;;;2.27;2.07;;;;;;;10.20;100.00;98101.66;5033188;28;20209;-71
2022/12/26 01:05:42;;;;;;;2.50;2.00;;;;;;;10.18;100.00;98094.94;5032937;28;20216;-71
2022/12/26 01:08:09;;;;;;;2.43;2.20;;;;;;;10.20;100.00;98095.53;5034792;28;20209;-71
2022/12/26 01:10:36;;;;;;;2.07;1.90;;;;;;;10.16;100.00;98089.84;5037318;28;20209;-71
2022/12/26 01:13:02;;;;;;;2.33;2.10;;;;;;;10.21;100.00;98091.81;5036269;28;20202;-71
2022/12/26 01:15:29;;;;;;;3.33;2.00;;;;;;;10.16;100.00;98091.66;5037921;28;20213;-71
2022/12/26 01:17:55;;;;;;;2.10;1.80;;;;;;;10.20;99.43;98091.03;5036213;28;20245;-71
2022/12/26 01:20:21;;;;;;;2.77;1.90;;;;;;;10.16;100.00;98092.50;5036067;28;20206;-71
2022/12/26 01:22:48;;;;;;;2.20;2.00;;;;;;;10.17;100.00;98095.94;5035896;28;20237;-71
2022/12/26 01:25:14;;;;;;;4.47;1.87;;;;;;;10.17;99.70;98095.94;5036085;28;20197;-71
2022/12/26 01:27:40;;;;;;;2.30;1.80;;;;;;;10.28;98.88;98097.91;5035895;28;20226;-71
2022/12/26 01:30:07;;;;;;;3.23;2.00;;;;;;;10.32;97.86;98091.94;5035571;28;20213;-71
2022/12/26 01:32:34;;;;;;;2.90;2.17;;;;;;;10.18;99.95;98089.63;5036074;28;20222;-71
2022/12/26 01:35:00;;;;;;;3.83;2.00;;;;;;;10.15;100.00;98092.69;5035807;28;20206;-71
2022/12/26 01:37:27;;;;;;;2.93;2.40;;;;;;;10.28;99.22;98087.28;5036644;28;20202;-71
2022/12/26 01:39:53;;;;;;;1.87;1.67;;;;;;;10.14;100.00;98088.41;5036688;28;20213;-71
2022/12/26 01:42:22;;;;;;;2.03;1.83;;;;;;;10.11;100.00;98096.81;5035637;28;20232;-71
2022/12/26 01:45:14;;;;;;;1.93;1.73;;;;;;;10.13;100.00;98098.22;5036553;28;20212;-71
2022/12/26 01:47:46;;;;;;;2.20;2.00;;;;;;;10.10;100.00;98097.84;5035628;28;20592;-71
2022/12/26 01:50:21;;;;;;;2.27;1.80;;;;;;;10.08;100.00;98106.03;5035298;28;20197;-71
2022/12/26 01:52:49;;;;;;;2.27;2.07;;;;;;;10.12;100.00;98095.78;5036049;28;20558;-71
2022/12/26 01:55:19;;;;;;;2.57;1.93;;;;;;;10.11;100.00;98102.94;5034241;28;20213;-71
2022/12/26 01:57:53;;;;;;;2.27;2.07;;;;;;;10.13;99.93;98108.03;5036011;28;20629;-71
2022/12/26 02:00:19;;;;;;;2.03;1.83;;;;;;;10.10;100.00;98111.13;5035519;28;20281;-71
2022/12/26 02:05:34;;;;;;;1.93;1.80;;;;;;;10.19;100.00;98107.97;5016054;28;20174;-71
2022/12/26 02:08:04;;;;;;;2.47;1.70;;;;;;;10.33;100.00;98100.75;5016358;28;20353;-71
2022/12/26 02:10:36;;;;;;;3.20;1.97;;;;;;;10.22;100.00;98106.72;5016862;28;20590;-71
2022/12/26 02:13:02;;;;;;;1.80;1.67;;;;;;;10.25;99.47;98098.34;5033997;28;20620;-71
2022/12/26 02:15:31;;;;;;;3.10;2.00;;;;;;;10.23;100.00;98097.75;5034700;28;20233;-71
2022/12/26 02:17:57;;;;;;;2.47;1.97;;;;;;;10.21;100.00;98094.50;5035929;28;20202;-71
2022/12/26 02:20:32;;;;;;;2.30;2.10;;;;;;;10.17;100.00;98099.44;5033348;28;20210;-71
2022/12/26 02:23:11;;;;;;;2.80;2.10;;;;;;;10.16;100.00;98092.50;5035592;28;20217;-71
2022/12/26 02:26:09;;;;;;;2.43;1.83;;;;;;;10.19;99.90;98091.25;5034978;28;20206;-71
2022/12/26 02:29:10;;;;;;;2.70;2.17;;;;;;;10.22;99.76;98091.63;5035713;28;20570;-70
2022/12/26 02:31:46;;;;;;;2.60;2.20;;;;;;;10.20;100.00;98101.66;5034045;28;20592;-71
2022/12/26 02:34:22;;;;;;;2.13;1.93;;;;;;;10.18;100.00;98103.69;5035300;28;20216;-71
2022/12/26 02:37:01;;;;;;;2.73;1.90;;;;;;;10.15;100.00;98116.59;5014796;28;20206;-70
2022/12/26 02:39:34;;;;;;;2.07;1.93;;;;;;;10.13;100.00;98111.50;5015647;28;20194;-70
2022/12/26 02:42:16;;;;;;;2.70;2.00;;;;;;;10.17;100.00;98112.72;5015361;28;20234;-70
2022/12/26 02:48:20;;;;;;;2.10;1.90;;;;;;;10.32;100.00;98117.72;5033571;28;20229;-70
2022/12/26 03:14:58;;;;;;;3.23;1.80;;;;;;;10.11;100.00;98113.56;5033727;28;20590;-70
2022/12/26 03:17:38;;;;;;;2.10;1.90;;;;;;;10.12;100.00;98109.06;5034052;28;20225;-71
2022/12/26 03:20:14;;;;;;;2.33;1.83;;;;;;;9.94;100.00;98108.94;5034813;28;20601;-70
2022/12/26 03:22:48;;;;;;;2.77;1.73;;;;;;;9.81;100.00;98111.66;5048775;28;20244;-70
2022/12/26 03:28:06;;;;;;;2.00;1.80;;;;;;;9.73;100.00;98093.34;5033845;28;20209;-71
2022/12/26 03:30:49;;;;;;;2.30;1.93;;;;;;;10.09;100.00;98093.56;5032777;28;20232;-70
2022/12/26 03:36:07;;;;;;;3.33;1.90;;;;;;;9.66;100.00;98090.72;5033408;28;20570;-70
2022/12/26 03:38:50;;;;;;;2.90;2.13;;;;;;;9.54;100.00;98092.41;5033300;28;20206;-71
2022/12/26 04:20:42;;;;;;;4.40;2.30;;;;;;;9.75;100.00;98104.56;5032618;28;20612;-70
2022/12/26 04:46:24;;;;;;;1.97;1.80;;;;;;;10.25;100.00;98098.34;5032156;28;20189;-70
2022/12/26 04:51:38;;;;;;;1.73;1.63;;;;;;;10.36;100.00;98079.84;5032287;28;20216;-71
2022/12/26 04:54:05;;;;;;;2.13;1.87;;;;;;;10.44;100.00;98087.56;5033844;28;20221;-70
2022/12/26 04:56:31;;;;;;;2.70;1.77;;;;;;;10.53;100.00;98082.78;5032696;28;20200;-70
2022/12/26 04:58:58;;;;;;;2.40;2.20;;;;;;;10.59;100.00;98092.56;5033336;28;20205;-70
2022/12/26 05:09:42;;;;;;;2.63;1.83;;;;;;;10.47;100.00;98104.91;5033252;28;20185;-70
2022/12/26 05:12:10;;;;;;;2.10;1.93;;;;;;;10.48;100.00;98104.72;5032209;28;20237;-70
2022/12/26 05:14:36;;;;;;;1.70;1.53;;;;;;;10.50;100.00;98107.16;5032314;28;20297;-70
2022/12/26 05:30:54;;;;;;;2.00;1.80;;;;;;;10.74;99.93;98103.66;5032611;28;20264;-70
2022/12/26 05:36:05;;;;;;;2.20;2.00;;;;;;;10.76;100.00;98105.06;5033014;28;20642;-70
2022/12/26 05:38:31;;;;;;;2.63;1.60;;;;;;;10.72;99.67;98101.22;5031934;28;20202;-70
2022/12/26 05:40:58;;;;;;;2.03;1.80;;;;;;;10.69;100.00;98101.66;5031618;28;20592;-71
2022/12/26 05:43:24;;;;;;;2.13;1.93;;;;;;;10.72;99.32;98108.38;5031374;28;20575;-71
2022/12/26 05:45:50;;;;;;;2.00;1.80;;;;;;;10.63;99.65;98101.69;5032680;28;20209;-71
2022/12/26 05:48:17;;;;;;;3.37;1.90;;;;;;;10.69;98.34;98108.81;5031831;28;20233;-71
2022/12/26 05:50:43;;;;;;;2.57;1.70;;;;;;;10.76;98.61;98112.22;5032463;28;20572;-70
2022/12/26 05:53:10;;;;;;;2.30;1.70;;;;;;;10.77;98.16;98129.84;5032492;28;20662;-71
2022/12/26 05:55:36;;;;;;;2.50;1.93;;;;;;;10.70;99.40;98113.09;5033685;28;20692;-70
2022/12/26 05:58:03;;;;;;;4.30;2.13;;;;;;;10.74;98.25;98117.78;5036343;28;20206;-70
2022/12/26 06:00:30;;;;;;;3.03;2.07;;;;;;;10.79;98.88;98114.47;5035110;28;20574;-70
2022/12/26 06:02:59;;;;;;;1.70;1.60;;;;;;;10.63;99.56;98117.66;5036218;28;20206;-70
2022/12/26 06:05:26;;;;;;;1.90;1.80;;;;;;;10.62;99.92;98122.19;5034490;28;20206;-70
2022/12/26 06:07:52;;;;;;;2.47;1.90;;;;;;;10.65;99.99;98118.28;5035888;28;20230;-70
2022/12/26 06:10:18;;;;;;;2.17;1.60;;;;;;;10.65;100.00;98124.41;5034733;28;20202;-70
2022/12/26 06:12:45;;;;;;;1.97;1.70;;;;;;;10.60;99.98;98124.22;5035535;28;20712;-70
2022/12/26 06:15:11;;;;;;;3.70;1.93;;;;;;;10.66;100.00;98110.06;5034719;28;20563;-71
2022/12/26 06:17:38;;;;;;;2.40;2.13;;;;;;;10.57;100.00;98113.22;5035219;28;20213;-70
2022/12/26 06:20:06;;;;;;;2.67;1.87;;;;;;;10.73;100.00;98110.03;5034577;28;20211;-71
2022/12/26 06:22:32;;;;;;;2.10;1.90;;;;;;;10.72;99.55;98114.50;5035476;28;20238;-70
2022/12/26 06:24:59;;;;;;;2.87;1.63;;;;;;;10.71;99.53;98110.22;5034913;28;20206;-70
2022/12/26 06:27:25;;;;;;;2.57;1.70;;;;;;;10.73;98.60;98102.03;5035709;28;20233;-70
2022/12/26 06:29:51;;;;;;;2.00;1.80;;;;;;;10.69;99.21;98111.50;5034874;28;20211;-70
2022/12/26 06:32:18;;;;;;;2.50;1.90;;;;;;;10.68;99.13;98101.88;5034965;28;20229;-70
2022/12/26 06:34:44;;;;;;;3.27;1.77;;;;;;;10.57;100.00;98102.59;5034780;28;20202;-70
2022/12/26 06:37:10;;;;;;;2.77;1.70;;;;;;;10.54;100.00;98103.84;5035160;28;20669;-71
2022/12/26 06:39:37;;;;;;;2.10;1.83;;;;;;;10.66;100.00;98093.31;5033835;28;20661;-70
2022/12/26 06:42:04;;;;;;;2.57;2.10;;;;;;;10.63;100.00;98096.38;5034195;28;20596;-70
2022/12/26 06:44:30;;;;;;;2.20;1.70;;;;;;;10.57;100.00;98098.09;5034787;28;20206;-70
2022/12/26 06:46:57;;;;;;;1.97;1.80;;;;;;;10.77;100.00;98108.56;5035342;28;20580;-70
2022/12/26 06:49:24;;;;;;;1.87;1.70;;;;;;;10.64;100.00;98109.47;5034032;28;20220;-70
2022/12/26 06:51:51;;;;;;;2.00;1.80;;;;;;;10.69;100.00;98106.97;5034968;28;20572;-70
2022/12/26 06:54:17;;;;;;;2.57;2.07;;;;;;;10.57;100.00;98108.72;5034510;28;20232;-71
2022/12/26 06:56:44;;;;;;;3.17;1.83;;;;;;;10.60;100.00;98110.13;5034404;28;20207;-71
2022/12/26 06:59:11;;;;;;;2.83;2.10;;;;;;;10.54;100.00;98119.00;5034356;28;20200;-71
2022/12/26 07:01:37;;;;;;;2.13;1.90;;;;;;;10.56;100.00;98108.94;5034531;28;20229;-71
2022/12/26 07:04:04;;;;;;;2.47;1.70;;;;;;;10.76;100.00;98115.72;5033456;28;20213;-71
2022/12/26 07:06:36;;;;;;;1.90;1.63;;;;;;;10.72;99.71;98111.84;5034356;28;20214;-71
2022/12/26 07:09:09;;;;;;;2.20;1.63;;;;;;;10.76;99.48;98121.03;5034119;28;20210;-71
2022/12/26 07:11:38;;;;;;;5.70;1.97;;;;;;;10.78;98.79;98123.47;5034829;28;20247;-71
2022/12/26 07:14:05;;;;;;;2.50;1.63;;;;;;;10.89;97.88;98122.75;5034003;28;20210;-71
2022/12/26 07:16:34;;;;;;;2.03;1.77;;;;;;;10.87;97.68;98128.28;5034298;28;20288;-71
2022/12/26 07:19:00;;;;;;;2.27;1.60;;;;;;;10.93;97.23;98121.28;5034041;28;20209;-71
2022/12/26 07:21:27;;;;;;;2.00;1.80;;;;;;;10.80;98.74;98110.75;5034415;28;20234;-71
2022/12/26 07:23:55;;;;;;;2.73;1.73;;;;;;;10.76;99.14;98115.72;5033556;28;20600;-71
2022/12/26 07:26:22;;;;;;;5.33;2.20;;;;;;;10.82;99.66;98127.31;5034311;28;20685;-71
2022/12/26 07:28:48;;;;;;;2.93;2.10;;;;;;;10.86;99.47;98131.19;5032636;28;20222;-71
2022/12/26 07:31:19;;;;;;;2.50;1.67;;;;;;;10.85;99.30;98132.19;5030761;28;20227;-71
2022/12/26 07:33:50;;;;;;;1.73;1.60;;;;;;;10.88;99.25;98129.09;5032643;28;20573;-71
2022/12/26 07:36:17;;;;;;;2.13;1.80;;;;;;;10.84;99.19;98130.56;5030951;28;20206;-71
2022/12/26 07:38:44;;;;;;;3.30;1.93;;;;;;;10.99;97.23;98136.34;5030932;28;20214;-71
2022/12/26 07:43:54;;;;;;;2.23;1.57;;;;;;;10.83;99.33;98115.66;5034082;28;20257;-71
2022/12/26 07:46:20;;;;;;;1.63;1.53;;;;;;;10.83;98.72;98136.94;5034272;28;20604;-71
2022/12/26 07:48:47;;;;;;;2.07;1.87;;;;;;;10.99;97.01;98139.00;5033779;28;20226;-71
2022/12/26 07:51:14;;;;;;;2.83;2.00;;;;;;;10.95;98.05;98129.88;5034088;28;20590;-71
2022/12/26 07:53:40;;;;;;;2.20;1.93;;;;;;;10.85;100.00;98124.22;5034038;28;20210;-71
2022/12/26 07:56:07;;;;;;;2.03;1.83;;;;;;;10.89;98.73;98134.22;5034581;28;20210;-71
2022/12/26 07:58:33;;;;;;;1.93;1.70;;;;;;;10.89;98.48;98142.19;5033379;28;20219;-71
2022/12/26 08:01:05;;;;;;;2.47;1.70;;;;;;;10.95;98.29;98143.97;5033761;28;20229;-71
2022/12/26 08:03:31;;;;;;;2.57;1.73;;;;;;;10.91;98.82;98145.44;5034002;28;20207;-71
2022/12/26 08:05:58;;;;;;;3.50;1.90;;;;;;;10.93;99.47;98147.88;5033862;28;20205;-71
2022/12/26 08:08:25;;;;;;;1.77;1.67;;;;;;;10.89;99.67;98144.03;5033358;28;20228;-71
2022/12/26 08:11:06;;;;;;;2.83;1.90;;;;;;;10.86;100.00;98139.16;5034132;28;20589;-71
2022/12/26 08:13:33;;;;;;;1.93;1.83;;;;;;;10.83;100.00;98132.44;5014680;28;20196;-71
2022/12/26 08:16:07;;;;;;;2.80;1.80;;;;;;;10.86;100.00;98142.63;5014077;28;20218;-71
2022/12/26 08:18:34;;;;;;;2.73;2.10;;;;;;;10.87;100.00;98148.75;5013510;28;20532;-71
2022/12/26 08:21:01;;;;;;;2.07;1.80;;;;;;;10.82;100.00;98144.06;5014257;28;20239;-71
2022/12/26 08:23:27;;;;;;;2.30;2.10;;;;;;;10.77;100.00;98135.94;5013870;28;20205;-71
2022/12/26 08:25:54;;;;;;;2.07;1.67;;;;;;;10.75;100.00;98142.50;5013829;28;20203;-71
2022/12/26 08:28:20;;;;;;;2.20;1.97;;;;;;;10.63;100.00;98153.03;5019397;28;20233;-71
2022/12/26 08:30:48;;;;;;;1.90;1.80;;;;;;;10.61;100.00;98157.78;5033470;28;20204;-71
2022/12/26 08:33:14;;;;;;;2.10;1.90;;;;;;;10.69;100.00;98165.47;5033201;28;20232;-71
2022/12/26 08:35:41;;;;;;;2.40;2.20;;;;;;;10.72;100.00;98166.88;5031927;28;20202;-71
2022/12/26 08:38:07;;;;;;;2.50;2.00;;;;;;;10.72;100.00;98174.84;5033056;28;20690;-71
2022/12/26 08:40:34;;;;;;;2.20;2.10;;;;;;;10.74;100.00;98180.78;5032902;28;20669;-71
2022/12/26 08:43:00;;;;;;;4.00;2.20;;;;;;;10.82;100.00;98185.84;5032168;28;20216;-71
2022/12/26 08:45:26;;;;;;;2.43;2.20;;;;;;;10.80;100.00;98194.03;5045459;28;20211;-71
2022/12/26 08:47:54;;;;;;;3.07;2.00;;;;;;;10.76;100.00;98199.97;5033207;28;20238;-71
2022/12/26 08:50:20;;;;;;;3.23;2.10;;;;;;;10.72;100.00;98199.59;5033199;28;20211;-71
2022/12/26 08:52:47;;;;;;;2.17;1.70;;;;;;;10.75;100.00;98203.66;5032523;28;20589;-71
2022/12/26 08:55:13;;;;;;;3.43;1.93;;;;;;;10.70;100.00;98216.81;5033095;28;20218;-71
2022/12/26 08:57:39;;;;;;;2.67;2.07;;;;;;;10.77;100.00;98217.59;5033054;28;20205;-71
2022/12/26 09:00:08;;;;;;;2.30;2.10;;;;;;;10.76;100.00;98230.06;5032471;28;20211;-71
2022/12/26 09:02:34;;;;;;;3.47;2.00;;;;;;;10.93;100.00;98235.66;5033622;28;20227;-71
2022/12/26 09:05:01;;;;;;;2.70;2.10;;;;;;;10.91;100.00;98243.03;5039351;28;20203;-71
2022/12/26 09:07:27;;;;;;;3.17;2.20;;;;;;;10.83;100.00;98248.63;5052881;28;20586;-71
2022/12/26 09:09:53;;;;;;;2.30;2.10;;;;;;;10.67;100.00;98252.63;5052505;28;20212;-71
2022/12/26 09:12:20;;;;;;;2.70;2.17;;;;;;;10.54;100.00;98260.66;5052459;28;20708;-71
2022/12/26 09:14:46;;;;;;;5.30;3.33;;;;;;;10.37;100.00;98258.72;5036284;28;20580;-71
2022/12/26 09:17:13;;;;;;;4.07;3.03;;;;;;;10.21;100.00;98251.25;5033036;28;20211;-71
2022/12/26 09:19:39;;;;;;;3.23;2.90;;;;;;;10.21;100.00;98262.69;5033577;28;20210;-71
2022/12/26 09:24:46;;;;;;;3.77;2.60;;;;;;;10.20;100.00;98253.09;5034837;28;20244;-72
2022/12/26 09:27:12;;;;;;;3.50;2.87;;;;;;;10.24;100.00;98258.78;5035423;28;20206;-71
2022/12/26 09:29:39;;;;;;;3.13;2.40;;;;;;;10.15;100.00;98252.91;5035808;28;20226;-71
2022/12/26 09:32:05;;;;;;;3.07;2.77;;;;;;;10.09;100.00;98256.41;5034933;28;20252;-71
2022/12/26 09:34:32;;;;;;;3.10;2.80;;;;;;;10.10;100.00;98251.91;5032319;28;20202;-71
2022/12/26 09:36:58;;;;;;;3.43;2.90;;;;;;;10.13;100.00;98254.13;5034673;28;20198;-71
2022/12/26 09:39:24;;;;;;;4.33;2.93;;;;;;;10.11;100.00;98272.13;5034551;28;20198;-71
2022/12/26 09:42:18;;;;;;;3.57;2.80;;;;;;;10.11;100.00;98272.13;5035699;28;20226;-71
2022/12/26 09:45:11;;;;;;;3.03;2.67;;;;;;;10.12;100.00;98284.38;5035634;28;20205;-71
2022/12/26 09:47:46;;;;;;;3.07;2.60;;;;;;;10.03;100.00;98297.06;5015163;28;20202;-71
2022/12/26 09:50:20;;;;;;;6.30;3.13;;;;;;;10.22;100.00;98313.97;5036237;28;20194;-71
2022/12/26 09:52:56;;;;;;;5.20;3.90;;;;;;;10.18;100.00;98323.41;5036411;28;20690;-71
2022/12/26 09:55:38;;;;;;;5.97;4.57;;;;;;;10.11;100.00;98330.56;5035759;28;20224;-70
2022/12/26 09:58:14;;;;;;;6.20;4.40;;;;;;;9.96;100.00;98328.13;5035934;28;20622;-70
2022/12/26 10:01:05;;;;;;;5.83;3.97;;;;;;;9.88;100.00;98324.88;5036111;28;20197;-69
2022/12/26 10:03:39;;;;;;;6.83;4.30;;;;;;;9.86;100.00;98327.75;5035191;28;20205;-69
2022/12/26 10:06:13;;;;;;;4.53;4.00;;;;;;;9.70;100.00;98322.88;5036157;28;20225;-69
2022/12/26 10:08:46;;;;;;;6.50;4.07;;;;;;;9.72;100.00;98323.47;5034833;28;20591;-69
2022/12/26 10:11:25;;;;;;;6.87;4.53;;;;;;;9.65;100.00;98333.28;5034350;28;20243;-69
2022/12/26 10:14:03;;;;;;;5.73;4.60;;;;;;;9.63;100.00;98329.22;5036761;28;20228;-69
2022/12/26 10:16:56;;;;;;;6.20;4.20;;;;;;;9.66;100.00;98321.66;5035953;28;20196;-69
2022/12/26 10:19:43;;;;;;;6.07;4.80;;;;;;;9.66;100.00;98329.63;5031430;28;20213;-69
2022/12/26 10:22:27;;;;;;;5.80;4.87;;;;;;;9.63;100.00;98322.06;5033574;28;20230;-70
2022/12/26 10:24:57;;;;;;;6.07;4.67;;;;;;;9.58;100.00;98313.09;5035686;28;20198;-70
2022/12/26 10:27:27;;;;;;;4.83;4.33;;;;;;;9.58;100.00;98318.41;5036316;28;20213;-69
2022/12/26 10:30:01;;;;;;;5.67;4.07;;;;;;;9.60;100.00;98319.81;5035393;28;20218;-70
2022/12/26 10:32:52;;;;;;;6.57;4.07;;;;;;;9.62;100.00;98324.94;5034344;28;20225;-70
2022/12/26 10:35:21;;;;;;;4.40;3.33;;;;;;;9.66;100.00;98326.97;5036254;28;20190;-70
2022/12/26 10:37:49;;;;;;;3.80;3.20;;;;;;;9.72;100.00;98328.78;5035567;28;20206;-70
2022/12/26 10:40:18;;;;;;;3.47;3.00;;;;;;;9.74;100.00;98326.72;5034182;28;20205;-70
2022/12/26 10:42:57;;;;;;;3.27;2.37;;;;;;;9.81;100.00;98337.34;5034361;28;20222;-70
2022/12/26 10:45:42;;;;;;;3.30;2.70;;;;;;;9.86;100.00;98319.78;5033843;28;20205;-69
2022/12/26 10:48:13;;;;;;;1.60;1.50;;;;;;;9.91;100.00;98324.47;5036005;28;20226;-69
2022/12/26 10:50:44;;;;;;;1.50;1.40;;;;;;;9.92;100.00;98331.41;5031787;28;20194;-70
2022/12/26 10:53:13;;;;;;;1.50;1.40;;;;;;;9.95;100.00;98342.44;5033918;28;20661;-70
2022/12/26 10:55:39;;;;;;;2.47;1.57;;;;;;;9.90;100.00;98339.59;5033915;28;20327;-69
2022/12/26 10:58:10;;;;;;;1.13;1.10;;;;;;;9.96;100.00;98338.75;5034656;28;20692;-69
2022/12/26 11:00:37;;;;;;;1.47;1.37;;;;;;;9.99;100.00;98333.03;5032255;28;20213;-69
2022/12/26 11:03:14;;;;;;;1.87;1.77;;;;;;;9.93;100.00;98335.69;5034145;28;20297;-70
2022/12/26 11:05:45;;;;;;;1.97;1.60;;;;;;;9.99;100.00;98341.00;5034084;28;20215;-70
2022/12/26 11:08:36;;;;;;;1.90;1.17;;;;;;;10.00;100.00;98333.84;5034636;28;20695;-70
2022/12/26 11:11:13;;;;;;;1.30;1.20;;;;;;;10.05;100.00;98326.91;5032786;28;20222;-70
2022/12/26 11:13:47;;;;;;;2.10;1.43;;;;;;;10.03;100.00;98310.34;5034886;28;20201;-70
2022/12/26 11:16:22;;;;;;;2.57;1.50;;;;;;;9.85;100.00;98314.66;5033826;28;20202;-70
2022/12/26 11:18:51;;;;;;;2.37;1.70;;;;;;;9.84;100.00;98316.53;5034932;28;20522;-70
2022/12/26 11:21:17;;;;;;;1.80;1.37;;;;;;;9.95;100.00;98315.88;5030160;28;20597;-69
2022/12/26 11:23:50;;;;;;;1.87;1.43;;;;;;;10.05;100.00;98302.19;5032441;28;20217;-70
2022/12/26 11:26:29;;;;;;;1.50;1.30;;;;;;;9.98;100.00;98288.09;5031427;28;20210;-70
2022/12/26 11:29:22;;;;;;;1.90;1.27;;;;;;;9.97;100.00;98289.94;5035300;28;20217;-70
2022/12/26 11:32:04;;;;;;;1.60;1.50;;;;;;;10.03;100.00;98273.16;5033681;28;20221;-70
2022/12/26 11:34:35;;;;;;;1.80;1.60;;;;;;;9.99;100.00;98284.41;5034453;28;20206;-70
2022/12/26 11:37:04;;;;;;;1.40;1.10;;;;;;;10.07;100.00;98292.16;5032592;28;20568;-70
2022/12/26 11:39:34;;;;;;;1.07;1.00;;;;;;;10.05;100.00;98316.28;5034003;28;20657;-70
2022/12/26 11:42:10;;;;;;;1.67;1.27;;;;;;;10.11;100.00;98319.94;5033066;28;20217;-70
2022/12/26 11:44:40;;;;;;;0.90;0.90;;;;;;;10.09;100.00;98320.16;5033809;28;20656;-70
2022/12/26 11:47:18;;;;;;;2.27;1.00;;;;;;;10.02;100.00;98316.69;5032572;28;20252;-70
2022/12/26 11:49:59;;;;;;;1.53;1.07;;;;;;;10.05;100.00;98331.41;5034000;28;20255;-70
2022/12/26 11:52:50;;;;;;;2.20;1.10;;;;;;;10.04;100.00;98298.72;5031880;28;20565;-70
2022/12/26 11:55:33;;;;;;;1.13;0.80;;;;;;;9.96;100.00;98296.25;5049144;28;20660;-70
2022/12/26 11:58:11;;;;;;;0.70;0.70;;;;;;;10.04;100.00;98295.19;5032062;28;20202;-70
2022/12/26 12:00:38;;;;;;;1.10;0.80;;;;;;;10.00;100.00;98304.63;5033794;28;20285;-70
2022/12/26 12:03:12;;;;;;;1.00;0.70;;;;;;;10.05;100.00;98304.84;5032741;28;20206;-70
2022/12/26 12:05:50;;;;;;;1.07;0.83;;;;;;;10.03;100.00;98288.25;5034096;28;20190;-70
2022/12/26 12:08:46;;;;;;;0.90;0.90;;;;;;;10.07;100.00;98271.75;5031950;28;20232;-70
2022/12/26 12:11:39;;;;;;;0.80;0.80;;;;;;;10.15;100.00;98286.63;5031980;28;20236;-70
2022/12/26 12:14:22;;;;;;;0.63;0.63;;;;;;;10.30;100.00;98279.19;5032776;28;20190;-70
2022/12/26 12:17:11;;;;;;;1.50;0.70;;;;;;;10.30;100.00;98289.81;5030850;28;20202;-70
2022/12/26 12:19:54;;;;;;;0.70;0.70;;;;;;;10.39;100.00;98296.53;5031499;28;20669;-70
2022/12/26 12:22:24;;;;;;;0.70;0.70;;;;;;;10.40;100.00;98319.41;5033407;28;20735;-70
2022/12/26 12:25:09;;;;;;;0.70;0.70;;;;;;;10.41;100.00;98321.06;5031945;28;20207;-70
2022/12/26 12:27:54;;;;;;;0.80;0.80;;;;;;;10.47;100.00;98306.94;5033000;28;20206;-70
2022/12/26 12:30:27;;;;;;;0.80;0.80;;;;;;;10.45;100.00;98303.69;5032523;28;20221;-70
2022/12/26 12:33:18;;;;;;;0.67;0.67;;;;;;;10.47;100.00;98290.97;5023337;28;20237;-70
2022/12/26 12:36:11;;;;;;;1.00;0.90;;;;;;;10.32;100.00;98299.22;5023357;28;20205;-70
2022/12/26 12:38:47;;;;;;;1.00;0.77;;;;;;;10.27;100.00;98298.25;5008749;28;20214;-70
2022/12/26 12:41:19;;;;;;;1.00;0.90;;;;;;;10.28;100.00;98292.69;5013480;28;20230;-70
2022/12/26 12:43:58;;;;;;;0.70;0.70;;;;;;;10.23;100.00;98281.09;5015041;28;20249;-70
2022/12/26 12:46:58;;;;;;;0.87;0.77;;;;;;;10.35;100.00;98284.69;5032015;28;20202;-70
2022/12/26 12:49:36;;;;;;;0.70;0.70;;;;;;;10.40;100.00;98298.97;5031515;28;20214;-70
2022/12/26 12:52:17;;;;;;;0.70;0.70;;;;;;;10.41;100.00;98289.19;5031220;28;20233;-69
2022/12/26 12:54:56;;;;;;;2.07;1.00;;;;;;;10.31;100.00;98299.41;5030759;28;20212;-70
2022/12/26 12:57:31;;;;;;;1.73;1.10;;;;;;;10.42;100.00;98286.28;5025332;28;20203;-70
2022/12/26 13:00:03;;;;;;;1.63;0.90;;;;;;;10.40;100.00;98292.84;5013167;28;20542;-70
2022/12/26 13:02:51;;;;;;;2.07;0.97;;;;;;;10.42;100.00;98291.59;5020613;28;20570;-70
2022/12/26 13:05:17;;;;;;;0.60;0.60;;;;;;;10.37;100.00;98293.28;5034676;28;20209;-70
2022/12/26 13:07:52;;;;;;;0.90;0.90;;;;;;;10.43;100.00;98295.09;5035174;28;20450;-70
2022/12/26 13:10:24;;;;;;;1.37;0.80;;;;;;;10.41;100.00;98287.31;5035782;28;20206;-70
2022/12/26 13:12:53;;;;;;;0.67;0.67;;;;;;;10.35;100.00;98287.34;5036107;28;20225;-70
2022/12/26 13:15:29;;;;;;;0.60;0.60;;;;;;;10.39;100.00;98299.19;5034697;28;20217;-70
2022/12/26 13:18:18;;;;;;;1.07;0.70;;;;;;;10.34;100.00;98291.03;5036084;28;20212;-70
2022/12/26 13:20:50;;;;;;;0.93;0.90;;;;;;;10.33;100.00;98290.22;5035987;28;20220;-71
2022/12/26 13:26:19;;;;;;;1.33;0.70;;;;;;;10.36;100.00;98275.72;5028045;28;20197;-70
2022/12/26 13:28:54;;;;;;;0.90;0.53;;;;;;;10.29;100.00;98262.47;5035818;28;20700;-70
2022/12/26 13:31:21;;;;;;;0.70;0.70;;;;;;;10.37;100.00;98256.06;5036604;28;20237;-70
2022/12/26 13:33:47;;;;;;;1.57;0.70;;;;;;;10.36;100.00;98246.47;5034663;28;20209;-70
2022/12/26 13:36:39;;;;;;;1.13;0.80;;;;;;;10.32;100.00;98259.34;5034742;28;20221;-70
2022/12/26 13:39:11;;;;;;;0.47;0.47;;;;;;;10.31;100.00;98263.03;5035883;28;20202;-70
2022/12/26 13:44:51;;;;;;;1.93;0.60;;;;;;;10.39;100.00;98276.09;5028672;28;20621;-70
2022/12/26 13:47:37;;;;;;;1.83;0.60;;;;;;;10.44;100.00;98276.28;5035732;28;20213;-70
2022/12/26 13:50:42;;;;;;;0.93;0.80;;;;;;;10.50;100.00;98269.31;5035308;28;20218;-70
2022/12/26 13:53:24;;;;;;;0.60;0.60;;;;;;;10.43;100.00;98269.34;5035777;28;20304;-70
2022/12/26 13:55:54;;;;;;;0.60;0.60;;;;;;;10.39;100.00;98264.63;5033850;28;20208;-70
2022/12/26 13:58:36;;;;;;;0.60;0.60;;;;;;;10.41;100.00;98289.19;5036197;28;20217;-71
2022/12/26 14:01:08;;;;;;;0.70;0.60;;;;;;;10.37;100.00;98291.41;5036053;28;20238;-74
2022/12/26 14:03:55;;;;;;;2.30;0.70;;;;;;;10.37;100.00;98274.69;5035805;28;20217;-72
2022/12/26 14:06:44;;;;;;;0.73;0.60;;;;;;;10.32;100.00;98267.31;5033698;28;20202;-70
2022/12/26 14:09:33;;;;;;;0.50;0.50;;;;;;;10.32;100.00;98272.66;5034148;28;20218;-69